createdAt,value
2017-07-22T00:01:04.330Z,21.80
2017-07-22T00:03:38.742Z,21.70
2017-07-22T00:06:12.737Z,21.70
2017-07-22T00:08:47.173Z,21.70
2017-07-22T00:11:21.070Z,21.60
2017-07-22T00:13:55.618Z,21.70
2017-07-22T00:16:29.705Z,21.60
2017-07-22T00:19:04.242Z,21.70
2017-07-22T00:21:38.097Z,21.70
2017-07-22T00:24:12.470Z,21.70
2017-07-22T00:26:46.621Z,21.60
2017-07-22T00:29:20.356Z,21.60
2017-07-22T00:31:54.129Z,21.60
2017-07-22T00:34:28.510Z,21.50
2017-07-22T00:37:02.610Z,21.40
2017-07-22T00:39:37.146Z,21.50
2017-07-22T00:42:11.296Z,21.40
2017-07-22T00:44:44.885Z,21.50
2017-07-22T00:47:18.657Z,21.40
2017-07-22T00:49:52.284Z,21.30
2017-07-22T00:52:25.940Z,21.30
2017-07-22T00:54:59.742Z,21.30
2017-07-22T00:57:33.605Z,21.30
2017-07-22T01:00:07.226Z,21.30
2017-07-22T01:02:41.655Z,21.30
2017-07-22T01:05:15.563Z,21.20
2017-07-22T01:07:50.074Z,21.30
2017-07-22T01:10:23.964Z,21.20
2017-07-22T01:12:58.601Z,21.30
2017-07-22T01:15:32.423Z,21.30
2017-07-22T01:18:07.271Z,21.30
2017-07-22T01:20:40.924Z,21.20
2017-07-22T01:23:14.731Z,21.20
2017-07-22T01:25:49.209Z,21.10
2017-07-22T01:28:23.968Z,21.10
2017-07-22T01:30:57.716Z,21.10
2017-07-22T01:33:32.149Z,21.10
2017-07-22T01:36:06.020Z,21.10
2017-07-22T01:38:39.672Z,21.10
2017-07-22T01:41:14.020Z,21.20
2017-07-22T01:43:47.902Z,21.10
2017-07-22T01:46:22.254Z,21.20
2017-07-22T01:48:57.033Z,21.10
2017-07-22T01:51:31.712Z,21.10
2017-07-22T01:54:06.566Z,21.20
2017-07-22T01:56:40.584Z,21.10
2017-07-22T01:59:14.296Z,21.10
2017-07-22T02:01:48.691Z,21.20
2017-07-22T02:04:22.589Z,21.00
2017-07-22T02:06:56.341Z,21.10
2017-07-22T02:09:30.921Z,21.10
2017-07-22T02:12:04.620Z,21.10
2017-07-22T02:14:38.500Z,21.10
2017-07-22T02:17:12.945Z,21.00
2017-07-22T02:19:47.017Z,21.00
2017-07-22T02:22:21.380Z,21.00
2017-07-22T02:24:55.580Z,20.90
2017-07-22T02:27:30.004Z,21.00
2017-07-22T02:30:03.997Z,20.90
2017-07-22T02:32:38.537Z,21.00
2017-07-22T02:35:12.640Z,20.90
2017-07-22T02:37:47.174Z,21.00
2017-07-22T02:40:21.353Z,21.00
2017-07-22T02:42:55.062Z,21.00
2017-07-22T02:45:29.558Z,20.90
2017-07-22T02:48:04.241Z,20.90
2017-07-22T02:50:38.501Z,20.80
2017-07-22T02:53:13.129Z,20.90
2017-07-22T02:55:47.801Z,20.90
2017-07-22T02:58:21.530Z,20.90
2017-07-22T03:00:56.088Z,20.80
2017-07-22T03:03:30.762Z,20.80
2017-07-22T03:06:04.798Z,20.80
2017-07-22T03:08:39.420Z,20.80
2017-07-22T03:11:13.073Z,20.80
2017-07-22T03:13:47.521Z,20.80
2017-07-22T03:16:21.720Z,20.70
2017-07-22T03:18:55.356Z,20.80
2017-07-22T03:21:29.064Z,20.80
2017-07-22T03:24:02.773Z,20.80
2017-07-22T03:26:37.328Z,20.80
2017-07-22T03:29:11.305Z,20.80
2017-07-22T03:31:45.037Z,20.70
2017-07-22T03:34:18.636Z,20.70
2017-07-22T03:36:52.378Z,20.70
2017-07-22T03:39:26.070Z,20.70
2017-07-22T03:41:59.941Z,20.70
2017-07-22T03:44:33.743Z,20.70
2017-07-22T03:47:08.384Z,20.70
2017-07-22T03:49:42.204Z,20.60
2017-07-22T03:52:16.014Z,20.70
2017-07-22T03:54:50.399Z,20.60
2017-07-22T03:57:25.125Z,20.60
2017-07-22T03:59:58.964Z,20.50
2017-07-22T04:02:32.732Z,20.60
2017-07-22T04:05:06.444Z,20.60
2017-07-22T04:07:41.062Z,20.50
2017-07-22T04:10:15.471Z,20.50
2017-07-22T04:12:49.213Z,20.50
2017-07-22T04:15:24.498Z,20.50
2017-07-22T04:17:58.481Z,20.50
2017-07-22T04:20:32.174Z,20.50
2017-07-22T04:23:05.921Z,20.40
2017-07-22T04:25:41.265Z,20.50
2017-07-22T04:28:15.258Z,20.40
2017-07-22T04:30:49.801Z,20.40
2017-07-22T04:33:23.706Z,20.40
2017-07-22T04:35:57.330Z,20.40
2017-07-22T04:38:32.716Z,20.50
2017-07-22T04:41:06.540Z,20.40
2017-07-22T04:43:41.119Z,20.60
2017-07-22T04:46:15.029Z,20.50
2017-07-22T04:48:49.564Z,20.50
2017-07-22T04:51:23.481Z,20.50
2017-07-22T04:53:57.252Z,20.50
2017-07-22T04:56:32.608Z,20.50
2017-07-22T04:59:07.444Z,20.60
2017-07-22T05:01:41.356Z,20.50
2017-07-22T05:04:15.980Z,20.70
2017-07-22T05:06:49.909Z,20.60
2017-07-22T05:09:23.543Z,20.70
2017-07-22T05:11:57.137Z,20.70
2017-07-22T05:14:31.620Z,20.70
2017-07-22T05:17:05.524Z,20.70
2017-07-22T05:19:40.053Z,20.80
2017-07-22T05:22:13.979Z,20.70
2017-07-22T05:24:47.765Z,20.70
2017-07-22T05:27:21.478Z,20.70
2017-07-22T05:29:56.877Z,20.80
2017-07-22T05:32:31.478Z,20.80
2017-07-22T05:35:05.430Z,20.80
2017-07-22T05:37:39.809Z,20.90
2017-07-22T05:40:13.833Z,20.80
2017-07-22T05:42:48.376Z,20.90
2017-07-22T05:45:22.113Z,20.90
2017-07-22T05:47:56.644Z,21.00
2017-07-22T05:50:30.596Z,21.10
2017-07-22T05:53:05.109Z,21.40
2017-07-22T05:55:38.980Z,21.40
2017-07-22T05:58:13.537Z,21.80
2017-07-22T06:00:47.524Z,21.80
2017-07-22T06:03:21.965Z,22.10
2017-07-22T06:05:55.968Z,22.10
2017-07-22T06:08:30.556Z,22.20
2017-07-22T06:11:04.312Z,22.30
2017-07-22T06:13:38.000Z,22.30
2017-07-22T06:16:11.785Z,22.30
2017-07-22T06:18:45.468Z,22.30
2017-07-22T06:21:19.315Z,22.30
2017-07-22T06:23:54.669Z,22.40
2017-07-22T06:26:28.665Z,22.30
2017-07-22T06:29:03.182Z,22.30
2017-07-22T06:31:38.685Z,22.40
2017-07-22T06:34:12.669Z,22.30
2017-07-22T06:36:47.289Z,22.40
2017-07-22T06:39:21.068Z,22.40
2017-07-22T06:41:55.701Z,22.50
2017-07-22T06:44:29.337Z,22.50
2017-07-22T06:47:03.996Z,22.50
2017-07-22T06:49:37.813Z,22.40
2017-07-22T06:52:12.413Z,22.50
2017-07-22T06:54:46.297Z,22.40
2017-07-22T06:57:20.131Z,22.40
2017-07-22T06:59:53.904Z,22.40
2017-07-22T07:02:27.608Z,22.30
2017-07-22T07:05:02.153Z,22.30
2017-07-22T07:07:36.763Z,22.30
2017-07-22T07:10:11.264Z,22.30
2017-07-22T07:12:45.367Z,22.30
2017-07-22T07:15:19.945Z,22.30
2017-07-22T07:17:54.661Z,22.30
2017-07-22T07:20:28.401Z,22.50
2017-07-22T07:23:02.073Z,22.60
2017-07-22T07:28:23.409Z,22.70
2017-07-22T07:30:57.063Z,22.70
2017-07-22T07:33:31.642Z,22.80
2017-07-22T07:36:05.644Z,22.80
2017-07-22T07:38:39.554Z,22.90
2017-07-22T07:41:13.167Z,23.10
2017-07-22T07:43:47.685Z,23.40
2017-07-22T07:46:21.512Z,23.30
2017-07-22T07:48:56.275Z,23.60
2017-07-22T07:51:30.701Z,23.80
2017-07-22T07:54:05.300Z,23.90
2017-07-22T07:56:38.920Z,23.80
2017-07-22T07:59:12.749Z,23.90
2017-07-22T08:01:46.576Z,23.90
2017-07-22T08:04:21.017Z,23.80
2017-07-22T08:06:55.776Z,23.60
2017-07-22T08:09:29.692Z,23.60
2017-07-22T08:12:03.469Z,23.60
2017-07-22T08:14:37.289Z,23.50
2017-07-22T08:17:12.637Z,23.70
2017-07-22T08:19:46.573Z,23.60
2017-07-22T08:22:21.062Z,23.60
2017-07-22T08:24:55.633Z,23.90
2017-07-22T08:27:29.639Z,23.90
2017-07-22T08:30:03.436Z,23.90
2017-07-22T08:32:37.977Z,23.90
2017-07-22T08:35:11.845Z,23.60
2017-07-22T08:37:45.453Z,23.40
2017-07-22T08:40:19.900Z,23.50
2017-07-22T08:42:53.817Z,23.40
2017-07-22T08:45:27.729Z,23.30
2017-07-22T08:48:02.120Z,23.40
2017-07-22T08:50:36.284Z,23.40
2017-07-22T08:53:10.741Z,23.50
2017-07-22T08:55:44.769Z,23.50
2017-07-22T08:58:18.383Z,23.50
2017-07-22T09:00:52.166Z,23.70
2017-07-22T09:03:26.580Z,23.90
2017-07-22T09:06:00.482Z,23.80
2017-07-22T09:08:34.252Z,24.00
2017-07-22T09:11:08.082Z,24.10
2017-07-22T09:13:42.616Z,23.90
2017-07-22T09:16:17.424Z,23.80
2017-07-22T09:18:51.142Z,23.90
2017-07-22T09:21:24.956Z,23.80
2017-07-22T09:23:59.517Z,23.80
2017-07-22T09:26:33.214Z,23.80
2017-07-22T09:29:06.820Z,23.70
2017-07-22T09:31:40.784Z,23.70
2017-07-22T09:34:14.503Z,23.80
2017-07-22T09:36:48.289Z,23.70
2017-07-22T09:39:21.890Z,23.80
2017-07-22T09:41:55.696Z,23.80
2017-07-22T09:44:30.245Z,23.90
2017-07-22T09:47:05.057Z,23.80
2017-07-22T09:49:38.796Z,24.00
2017-07-22T09:52:12.604Z,24.00
2017-07-22T09:54:46.284Z,24.10
2017-07-22T09:57:20.960Z,24.30
2017-07-22T09:59:55.008Z,24.30
2017-07-22T10:02:28.808Z,24.50
2017-07-22T10:05:02.417Z,24.50
2017-07-22T10:07:36.057Z,24.60
2017-07-22T10:10:09.828Z,24.70
2017-07-22T10:12:44.485Z,24.80
2017-07-22T10:15:18.461Z,24.80
2017-07-22T10:17:53.000Z,24.90
2017-07-22T10:20:26.741Z,24.90
2017-07-22T10:23:01.481Z,25.00
2017-07-22T10:25:36.160Z,24.90
2017-07-22T10:28:10.926Z,24.60
2017-07-22T10:30:44.924Z,24.60
2017-07-22T10:33:19.545Z,24.50
2017-07-22T10:35:53.511Z,24.50
2017-07-22T10:38:28.088Z,24.60
2017-07-22T10:41:01.969Z,24.60
2017-07-22T10:43:36.602Z,24.70
2017-07-22T10:46:10.402Z,24.80
2017-07-22T10:48:44.278Z,24.80
2017-07-22T10:51:18.816Z,24.80
2017-07-22T10:53:52.756Z,24.80
2017-07-22T10:56:27.250Z,24.90
2017-07-22T10:59:02.015Z,24.90
2017-07-22T11:01:35.892Z,24.90
2017-07-22T11:04:09.780Z,25.00
2017-07-22T11:06:44.419Z,25.00
2017-07-22T11:09:18.552Z,25.00
2017-07-22T11:11:53.136Z,25.00
2017-07-22T11:14:26.963Z,25.10
2017-07-22T11:17:01.385Z,25.30
2017-07-22T11:19:35.364Z,25.30
2017-07-22T11:22:09.929Z,25.30
2017-07-22T11:24:43.804Z,25.50
2017-07-22T11:27:18.381Z,25.70
2017-07-22T11:29:52.136Z,25.80
2017-07-22T11:32:26.577Z,26.00
2017-07-22T11:35:00.562Z,25.90
2017-07-22T11:37:34.912Z,26.10
2017-07-22T11:40:08.966Z,26.10
2017-07-22T11:42:43.441Z,26.40
2017-07-22T11:45:17.497Z,26.30
2017-07-22T11:47:51.868Z,26.30
2017-07-22T11:50:25.965Z,26.30
2017-07-22T11:53:00.405Z,26.80
2017-07-22T11:55:34.478Z,26.70
2017-07-22T11:58:09.765Z,26.70
2017-07-22T12:00:43.721Z,26.70
2017-07-22T12:03:17.389Z,26.70
2017-07-22T12:05:51.942Z,26.50
2017-07-22T12:08:25.817Z,26.50
2017-07-22T12:10:59.669Z,26.40
2017-07-22T12:13:34.024Z,26.00
2017-07-22T12:16:09.918Z,25.90
2017-07-22T12:18:43.692Z,25.80
2017-07-22T12:21:18.352Z,25.70
2017-07-22T12:23:52.258Z,25.50
2017-07-22T12:26:26.143Z,25.50
2017-07-22T12:29:00.689Z,25.50
2017-07-22T12:31:35.334Z,25.50
2017-07-22T12:34:09.216Z,25.50
2017-07-22T12:36:43.124Z,25.50
2017-07-22T12:39:16.801Z,25.50
2017-07-22T12:41:50.672Z,25.50
2017-07-22T12:44:25.126Z,25.30
2017-07-22T12:47:00.069Z,25.30
2017-07-22T12:49:33.840Z,25.20
2017-07-22T12:52:08.437Z,25.20
2017-07-22T12:54:42.916Z,25.10
2017-07-22T12:57:17.076Z,25.00
2017-07-22T12:59:51.541Z,25.10
2017-07-22T13:02:25.544Z,25.00
2017-07-22T13:04:59.232Z,25.00
2017-07-22T13:07:33.061Z,24.90
2017-07-22T13:10:07.482Z,24.90
2017-07-22T13:12:41.601Z,24.80
2017-07-22T13:15:16.121Z,24.90
2017-07-22T13:17:49.913Z,24.80
2017-07-22T13:20:24.354Z,24.90
2017-07-22T13:22:58.355Z,24.90
2017-07-22T13:25:32.137Z,24.90
2017-07-22T13:28:05.805Z,24.90
2017-07-22T13:30:40.186Z,24.90
2017-07-22T13:33:14.143Z,24.80
2017-07-22T13:35:47.832Z,24.90
2017-07-22T13:38:21.692Z,25.10
2017-07-22T13:40:56.127Z,25.30
2017-07-22T13:43:30.121Z,25.30
2017-07-22T13:46:04.689Z,25.80
2017-07-22T13:48:38.436Z,25.90
2017-07-22T13:51:12.034Z,26.20
2017-07-22T13:53:45.858Z,26.30
2017-07-22T13:56:20.388Z,26.80
2017-07-22T13:58:54.488Z,26.80
2017-07-22T14:01:28.094Z,26.90
2017-07-22T14:04:01.728Z,26.80
2017-07-22T14:06:36.228Z,26.70
2017-07-22T14:09:10.193Z,26.70
2017-07-22T14:11:44.677Z,26.70
2017-07-22T14:14:18.522Z,26.50
2017-07-22T14:16:52.108Z,26.30
2017-07-22T14:19:25.761Z,26.10
2017-07-22T14:22:00.203Z,25.90
2017-07-22T14:24:34.756Z,26.10
2017-07-22T14:27:08.773Z,26.00
2017-07-22T14:29:43.557Z,27.10
2017-07-22T14:32:17.148Z,27.10
2017-07-22T14:34:51.653Z,28.20
2017-07-22T14:37:25.513Z,28.10
2017-07-22T14:40:00.180Z,29.10
2017-07-22T14:42:33.936Z,29.00
2017-07-22T14:45:07.573Z,29.50
2017-07-22T14:47:41.961Z,29.30
2017-07-22T14:50:16.533Z,29.30
2017-07-22T14:52:51.621Z,29.10
2017-07-22T14:55:25.620Z,29.00
2017-07-22T14:58:00.193Z,28.90
2017-07-22T15:00:33.837Z,29.10
2017-07-22T15:03:07.548Z,29.20
2017-07-22T15:05:41.337Z,29.30
2017-07-22T15:08:15.735Z,29.70
2017-07-22T15:10:50.252Z,29.60
2017-07-22T15:13:24.951Z,29.70
2017-07-22T15:15:59.735Z,29.60
2017-07-22T15:18:33.492Z,29.90
2017-07-22T15:21:08.068Z,30.50
2017-07-22T15:23:41.745Z,30.70
2017-07-22T15:26:16.374Z,30.60
2017-07-22T15:28:50.248Z,30.50
2017-07-22T15:31:24.844Z,30.90
2017-07-22T15:34:00.207Z,30.80
2017-07-22T15:36:34.273Z,30.80
2017-07-22T15:39:09.554Z,31.40
2017-07-22T15:41:44.238Z,32.00
2017-07-22T15:44:18.077Z,31.90
2017-07-22T15:46:53.585Z,31.90
2017-07-22T15:49:27.282Z,32.50
2017-07-22T15:52:01.200Z,32.50
2017-07-22T15:54:35.685Z,31.90
2017-07-22T15:57:09.689Z,31.80
2017-07-22T15:59:43.245Z,32.10
2017-07-22T16:02:17.687Z,32.10
2017-07-22T16:04:51.429Z,32.00
2017-07-22T16:07:26.253Z,32.90
2017-07-22T16:09:59.937Z,32.80
2017-07-22T16:12:33.861Z,33.10
2017-07-22T16:15:07.444Z,33.40
2017-07-22T16:17:43.202Z,33.40
2017-07-22T16:20:16.844Z,33.30
2017-07-22T16:22:50.605Z,32.70
2017-07-22T16:25:25.846Z,31.30
2017-07-22T16:27:59.856Z,31.20
2017-07-22T16:30:34.413Z,31.10
2017-07-22T16:33:09.872Z,30.50
2017-07-22T16:35:43.577Z,30.40
2017-07-22T16:38:18.299Z,29.50
2017-07-22T16:40:52.252Z,29.40
2017-07-22T16:43:26.097Z,29.30
2017-07-22T16:46:00.656Z,29.20
2017-07-22T16:48:37.064Z,28.60
2017-07-22T16:51:11.685Z,28.50
2017-07-22T16:53:45.549Z,28.40
2017-07-22T16:56:19.917Z,28.20
2017-07-22T16:58:53.909Z,28.20
2017-07-22T17:01:27.529Z,28.10
2017-07-22T17:04:01.325Z,28.10
2017-07-22T17:06:35.752Z,27.90
2017-07-22T17:09:09.833Z,27.90
2017-07-22T17:11:45.108Z,27.70
2017-07-22T17:14:19.146Z,27.70
2017-07-22T17:16:53.676Z,27.80
2017-07-22T17:19:28.305Z,27.60
2017-07-22T17:22:02.254Z,27.50
2017-07-22T17:24:36.742Z,27.50
2017-07-22T17:27:11.333Z,27.30
2017-07-22T17:29:46.297Z,27.40
2017-07-22T17:32:20.307Z,27.30
2017-07-22T17:34:54.931Z,27.30
2017-07-22T17:37:28.781Z,27.20
2017-07-22T17:40:02.605Z,27.40
2017-07-22T17:42:36.192Z,27.40
2017-07-22T17:45:09.821Z,27.40
2017-07-22T17:47:44.341Z,27.30
2017-07-22T17:50:18.985Z,27.20
2017-07-22T17:52:52.901Z,27.10
2017-07-22T17:55:26.829Z,27.10
2017-07-22T17:58:00.508Z,27.10
2017-07-22T18:00:34.304Z,27.10
2017-07-22T18:03:08.700Z,26.80
2017-07-22T18:05:43.365Z,26.70
2017-07-22T18:08:17.143Z,26.60
2017-07-22T18:10:50.874Z,26.60
2017-07-22T18:13:24.453Z,26.50
2017-07-22T18:16:00.097Z,26.50
2017-07-22T18:18:34.604Z,26.50
2017-07-22T18:21:09.306Z,26.50
2017-07-22T18:23:44.161Z,26.40
2017-07-22T18:26:18.165Z,26.40
2017-07-22T18:28:52.588Z,26.20
2017-07-22T18:31:26.470Z,26.20
2017-07-22T18:34:01.857Z,26.20
2017-07-22T18:36:36.514Z,26.10
2017-07-22T18:39:11.304Z,26.10
2017-07-22T18:41:45.148Z,26.00
2017-07-22T18:44:18.757Z,26.00
2017-07-22T18:46:54.593Z,25.90
2017-07-22T18:49:29.196Z,25.90
2017-07-22T18:52:03.256Z,25.80
2017-07-22T18:54:37.630Z,25.80
2017-07-22T18:57:12.479Z,25.70
2017-07-22T18:59:46.197Z,25.70
2017-07-22T19:02:20.608Z,25.60
2017-07-22T19:04:54.526Z,25.60
2017-07-22T19:07:28.229Z,25.50
2017-07-22T19:10:03.524Z,25.40
2017-07-22T19:12:37.440Z,25.40
2017-07-22T19:15:11.963Z,25.30
2017-07-22T19:17:46.035Z,25.30
2017-07-22T19:20:20.387Z,25.20
2017-07-22T19:22:54.491Z,25.20
2017-07-22T19:25:29.841Z,25.10
2017-07-22T19:28:03.737Z,25.10
2017-07-22T19:30:37.364Z,25.10
2017-07-22T19:33:11.304Z,25.00
2017-07-22T19:35:46.409Z,24.80
2017-07-22T19:38:21.188Z,24.80
2017-07-22T19:40:56.061Z,24.70
2017-07-22T19:43:29.997Z,24.60
2017-07-22T19:46:03.606Z,24.60
2017-07-22T19:48:37.533Z,24.60
2017-07-22T19:51:12.012Z,24.50
2017-07-22T19:53:46.005Z,24.40
2017-07-22T19:56:20.439Z,24.40
2017-07-22T19:58:54.440Z,24.30
2017-07-22T20:01:28.977Z,24.40
2017-07-22T20:04:03.514Z,24.30
2017-07-22T20:06:37.389Z,24.20
2017-07-22T20:09:12.002Z,24.20
2017-07-22T20:11:46.516Z,24.10
2017-07-22T20:14:20.344Z,24.10
2017-07-22T20:16:54.869Z,24.00
2017-07-22T20:19:28.593Z,24.00
2017-07-22T20:22:02.377Z,23.90
2017-07-22T20:24:36.160Z,23.80
2017-07-22T20:27:09.932Z,23.80
2017-07-22T20:29:44.661Z,23.60
2017-07-22T20:32:18.493Z,23.50
2017-07-22T20:34:53.828Z,23.50
2017-07-22T20:37:27.774Z,23.50
2017-07-22T20:40:01.573Z,23.50
2017-07-22T20:42:35.276Z,23.40
2017-07-22T20:45:09.137Z,23.40
2017-07-22T20:47:42.790Z,23.40
2017-07-22T20:50:16.654Z,23.30
2017-07-22T20:52:50.272Z,23.30
2017-07-22T20:55:24.160Z,23.30
2017-07-22T20:57:57.925Z,23.20
2017-07-22T21:00:31.784Z,23.20
2017-07-22T21:03:05.436Z,23.20
2017-07-22T21:05:39.221Z,23.10
2017-07-22T21:08:13.798Z,23.10
2017-07-22T21:10:47.584Z,23.00
2017-07-22T21:13:21.221Z,23.00
2017-07-22T21:15:55.989Z,23.00
2017-07-22T21:18:30.523Z,22.90
2017-07-22T21:21:04.594Z,22.90
2017-07-22T21:23:39.057Z,22.90
2017-07-22T21:26:13.353Z,22.80
2017-07-22T21:28:47.886Z,22.80
2017-07-22T21:31:21.961Z,22.80
2017-07-22T21:33:55.672Z,22.80
2017-07-22T21:36:30.066Z,22.80
2017-07-22T21:39:03.937Z,22.70
2017-07-22T21:41:37.576Z,22.70
2017-07-22T21:44:12.058Z,22.70
2017-07-22T21:46:46.977Z,22.60
2017-07-22T21:49:20.677Z,22.60
2017-07-22T21:51:54.593Z,22.60
2017-07-22T21:54:28.177Z,22.60
2017-07-22T21:57:01.837Z,22.50
2017-07-22T21:59:36.324Z,22.50
2017-07-22T22:02:10.252Z,22.50
2017-07-22T22:04:44.022Z,22.60
2017-07-22T22:07:17.842Z,22.50
2017-07-22T22:09:52.361Z,22.50
2017-07-22T22:12:27.361Z,22.50
2017-07-22T22:15:01.408Z,22.50
2017-07-22T22:17:37.069Z,22.50
2017-07-22T22:20:10.849Z,22.40
2017-07-22T22:22:45.533Z,22.50
2017-07-22T22:25:19.392Z,22.50
2017-07-22T22:27:53.857Z,22.50
2017-07-22T22:30:27.682Z,22.50
2017-07-22T22:33:01.641Z,22.60
2017-07-22T22:35:35.285Z,22.50
2017-07-22T22:38:09.876Z,22.60
2017-07-22T22:40:43.623Z,22.60
2017-07-22T22:43:17.352Z,22.60
2017-07-22T22:45:51.092Z,22.60
2017-07-22T22:48:24.924Z,22.60
2017-07-22T22:50:58.628Z,22.60
2017-07-22T22:53:32.417Z,22.60
2017-07-22T22:56:06.037Z,22.60
2017-07-22T22:58:40.741Z,22.70
2017-07-22T23:01:14.721Z,22.60
2017-07-22T23:03:48.704Z,22.60
2017-07-22T23:06:23.171Z,22.70
2017-07-22T23:08:58.241Z,22.70
2017-07-22T23:11:32.154Z,22.60
2017-07-22T23:14:06.792Z,22.60
2017-07-22T23:16:40.686Z,22.70
2017-07-22T23:19:16.734Z,22.70
2017-07-22T23:21:51.232Z,22.70
2017-07-22T23:24:25.377Z,22.60
2017-07-22T23:26:59.964Z,22.70
2017-07-22T23:29:34.641Z,22.70
2017-07-22T23:32:09.422Z,22.70
2017-07-22T23:34:43.507Z,22.70
2017-07-22T23:37:17.857Z,22.70
2017-07-22T23:39:52.624Z,22.60
2017-07-22T23:42:27.408Z,22.40
2017-07-22T23:45:02.185Z,22.30
2017-07-22T23:47:36.232Z,22.20
2017-07-22T23:50:10.985Z,22.20
2017-07-22T23:52:44.713Z,22.10
2017-07-22T23:55:18.480Z,22.10
2017-07-22T23:57:52.140Z,21.90
